Terminal Aerodrome Forecast
Issued by NWS

Home | Current Version | Previous Version | Text Only | Print | Product List | Glossary On
Versions: 1 2 3 4 5 6 7 8 9 10 11 12 13 14
000
FTUS46 KSTO 112300
TAFSAC
TAF
KSAC 112328Z 1200/1224 22011KT P6SM SKC
     FM120500 19007KT P6SM SKC
     FM121700 23010KT P6SM SKC=

USA.gov is the U.S. government's official web portal to all federal, state and local government web resources and services.